sensor_id;sensor_type;location;lat;lon;timestamp;P1;durP1;ratioP1;P2;durP2;ratioP2
74320;SDS011;62738;45.772;4.804;2023-08-31T00:01:00;4.20;;;1.95;;
74320;SDS011;62738;45.772;4.804;2023-08-31T00:03:27;3.90;;;1.60;;
74320;SDS011;62738;45.772;4.804;2023-08-31T00:05:55;2.90;;;1.55;;
74320;SDS011;62738;45.772;4.804;2023-08-31T00:08:23;3.15;;;1.48;;
74320;SDS011;62738;45.772;4.804;2023-08-31T00:10:56;5.13;;;1.80;;
74320;SDS011;62738;45.772;4.804;2023-08-31T00:13:24;3.47;;;1.85;;
74320;SDS011;62738;45.772;4.804;2023-08-31T00:15:50;3.67;;;1.80;;
74320;SDS011;62738;45.772;4.804;2023-08-31T00:18:17;3.55;;;1.60;;
74320;SDS011;62738;45.772;4.804;2023-08-31T00:20:44;3.13;;;1.63;;
74320;SDS011;62738;45.772;4.804;2023-08-31T00:23:11;3.88;;;1.63;;
74320;SDS011;62738;45.772;4.804;2023-08-31T00:25:38;4.30;;;1.80;;
74320;SDS011;62738;45.772;4.804;2023-08-31T00:28:05;3.75;;;1.50;;
74320;SDS011;62738;45.772;4.804;2023-08-31T00:30:31;4.10;;;1.63;;
74320;SDS011;62738;45.772;4.804;2023-08-31T00:32:58;2.85;;;1.58;;
74320;SDS011;62738;45.772;4.804;2023-08-31T00:35:28;4.03;;;1.83;;
74320;SDS011;62738;45.772;4.804;2023-08-31T00:37:55;3.25;;;1.63;;
74320;SDS011;62738;45.772;4.804;2023-08-31T00:40:24;3.90;;;1.63;;
74320;SDS011;62738;45.772;4.804;2023-08-31T00:42:51;2.85;;;1.70;;
74320;SDS011;62738;45.772;4.804;2023-08-31T00:45:18;4.60;;;1.70;;
74320;SDS011;62738;45.772;4.804;2023-08-31T00:47:46;3.95;;;1.80;;
74320;SDS011;62738;45.772;4.804;2023-08-31T00:50:16;3.03;;;1.67;;
74320;SDS011;62738;45.772;4.804;2023-08-31T00:52:43;3.00;;;1.85;;
74320;SDS011;62738;45.772;4.804;2023-08-31T00:55:14;4.20;;;1.75;;
74320;SDS011;62738;45.772;4.804;2023-08-31T00:57:44;4.13;;;1.83;;
74320;SDS011;62738;45.772;4.804;2023-08-31T01:00:11;4.18;;;1.77;;
74320;SDS011;62738;45.772;4.804;2023-08-31T01:02:46;2.35;;;1.50;;
74320;SDS011;62738;45.772;4.804;2023-08-31T01:05:29;4.80;;;1.85;;
74320;SDS011;62738;45.772;4.804;2023-08-31T01:10:33;3.70;;;1.63;;
74320;SDS011;62738;45.772;4.804;2023-08-31T01:13:11;3.53;;;1.67;;
74320;SDS011;62738;45.772;4.804;2023-08-31T01:15:41;2.85;;;1.60;;
74320;SDS011;62738;45.772;4.804;2023-08-31T01:18:14;3.55;;;1.67;;
74320;SDS011;62738;45.772;4.804;2023-08-31T01:20:50;3.58;;;1.80;;
74320;SDS011;62738;45.772;4.804;2023-08-31T01:23:27;3.38;;;1.75;;
74320;SDS011;62738;45.772;4.804;2023-08-31T01:26:00;5.78;;;1.83;;
74320;SDS011;62738;45.772;4.804;2023-08-31T01:28:27;3.25;;;1.80;;
74320;SDS011;62738;45.772;4.804;2023-08-31T01:30:53;3.45;;;1.95;;
74320;SDS011;62738;45.772;4.804;2023-08-31T01:33:20;4.38;;;2.50;;
74320;SDS011;62738;45.772;4.804;2023-08-31T01:35:48;5.63;;;2.05;;
74320;SDS011;62738;45.772;4.804;2023-08-31T01:38:20;3.83;;;1.92;;
74320;SDS011;62738;45.772;4.804;2023-08-31T01:40:54;3.72;;;2.05;;
74320;SDS011;62738;45.772;4.804;2023-08-31T01:43:25;3.47;;;1.83;;
74320;SDS011;62738;45.772;4.804;2023-08-31T01:45:53;4.45;;;1.60;;
74320;SDS011;62738;45.772;4.804;2023-08-31T01:48:20;5.57;;;2.20;;
74320;SDS011;62738;45.772;4.804;2023-08-31T01:50:47;7.05;;;2.85;;
74320;SDS011;62738;45.772;4.804;2023-08-31T01:53:13;3.67;;;2.03;;
74320;SDS011;62738;45.772;4.804;2023-08-31T01:55:40;5.45;;;2.00;;
74320;SDS011;62738;45.772;4.804;2023-08-31T01:58:07;3.20;;;1.77;;
74320;SDS011;62738;45.772;4.804;2023-08-31T02:00:33;4.00;;;2.20;;
74320;SDS011;62738;45.772;4.804;2023-08-31T02:03:01;3.08;;;1.75;;
74320;SDS011;62738;45.772;4.804;2023-08-31T02:05:29;5.28;;;1.90;;
74320;SDS011;62738;45.772;4.804;2023-08-31T02:07:56;3.65;;;2.10;;
74320;SDS011;62738;45.772;4.804;2023-08-31T02:10:22;3.38;;;1.90;;
74320;SDS011;62738;45.772;4.804;2023-08-31T02:12:49;3.63;;;1.98;;
74320;SDS011;62738;45.772;4.804;2023-08-31T02:15:15;4.70;;;2.13;;
74320;SDS011;62738;45.772;4.804;2023-08-31T02:17:42;3.28;;;1.88;;
74320;SDS011;62738;45.772;4.804;2023-08-31T02:20:10;5.10;;;2.15;;
74320;SDS011;62738;45.772;4.804;2023-08-31T02:22:37;3.72;;;2.05;;
74320;SDS011;62738;45.772;4.804;2023-08-31T02:25:03;3.65;;;1.88;;
74320;SDS011;62738;45.772;4.804;2023-08-31T02:27:31;3.50;;;2.40;;
74320;SDS011;62738;45.772;4.804;2023-08-31T02:29:58;3.47;;;1.98;;
74320;SDS011;62738;45.772;4.804;2023-08-31T02:32:25;4.18;;;1.88;;
74320;SDS011;62738;45.772;4.804;2023-08-31T02:34:51;4.25;;;2.10;;
74320;SDS011;62738;45.772;4.804;2023-08-31T02:37:18;4.53;;;1.83;;
74320;SDS011;62738;45.772;4.804;2023-08-31T02:39:45;4.65;;;2.10;;
74320;SDS011;62738;45.772;4.804;2023-08-31T02:42:13;3.95;;;2.08;;
74320;SDS011;62738;45.772;4.804;2023-08-31T02:44:40;3.83;;;1.90;;
74320;SDS011;62738;45.772;4.804;2023-08-31T02:47:07;3.15;;;1.65;;
74320;SDS011;62738;45.772;4.804;2023-08-31T02:49:33;4.13;;;1.85;;
74320;SDS011;62738;45.772;4.804;2023-08-31T02:52:00;3.20;;;1.85;;
74320;SDS011;62738;45.772;4.804;2023-08-31T02:54:28;5.68;;;1.75;;
74320;SDS011;62738;45.772;4.804;2023-08-31T02:56:54;3.08;;;1.50;;
74320;SDS011;62738;45.772;4.804;2023-08-31T02:59:21;4.32;;;1.92;;
74320;SDS011;62738;45.772;4.804;2023-08-31T03:01:48;3.47;;;1.67;;
74320;SDS011;62738;45.772;4.804;2023-08-31T03:04:15;3.05;;;1.80;;
74320;SDS011;62738;45.772;4.804;2023-08-31T03:06:41;4.15;;;1.60;;
74320;SDS011;62738;45.772;4.804;2023-08-31T03:09:08;3.25;;;1.70;;
74320;SDS011;62738;45.772;4.804;2023-08-31T03:11:36;3.50;;;1.77;;
74320;SDS011;62738;45.772;4.804;2023-08-31T03:14:02;3.13;;;1.45;;
74320;SDS011;62738;45.772;4.804;2023-08-31T03:16:29;3.72;;;1.88;;
74320;SDS011;62738;45.772;4.804;2023-08-31T03:18:56;4.70;;;1.80;;
74320;SDS011;62738;45.772;4.804;2023-08-31T03:21:22;3.25;;;1.83;;
74320;SDS011;62738;45.772;4.804;2023-08-31T03:23:49;4.15;;;1.85;;
74320;SDS011;62738;45.772;4.804;2023-08-31T03:26:15;2.55;;;1.77;;
74320;SDS011;62738;45.772;4.804;2023-08-31T03:28:42;4.28;;;1.88;;
74320;SDS011;62738;45.772;4.804;2023-08-31T03:31:09;2.88;;;1.52;;
74320;SDS011;62738;45.772;4.804;2023-08-31T03:33:36;4.97;;;1.85;;
74320;SDS011;62738;45.772;4.804;2023-08-31T03:36:03;4.45;;;2.00;;
74320;SDS011;62738;45.772;4.804;2023-08-31T03:38:31;2.90;;;1.52;;
74320;SDS011;62738;45.772;4.804;2023-08-31T03:40:58;3.63;;;1.63;;
74320;SDS011;62738;45.772;4.804;2023-08-31T03:43:25;4.82;;;1.60;;
74320;SDS011;62738;45.772;4.804;2023-08-31T03:45:55;4.32;;;1.73;;
74320;SDS011;62738;45.772;4.804;2023-08-31T03:50:50;3.42;;;1.90;;
74320;SDS011;62738;45.772;4.804;2023-08-31T03:53:17;4.10;;;1.95;;
74320;SDS011;62738;45.772;4.804;2023-08-31T03:55:44;3.70;;;1.90;;
74320;SDS011;62738;45.772;4.804;2023-08-31T03:58:11;2.75;;;1.60;;
74320;SDS011;62738;45.772;4.804;2023-08-31T04:00:38;3.25;;;1.70;;
74320;SDS011;62738;45.772;4.804;2023-08-31T04:03:05;4.57;;;1.98;;
74320;SDS011;62738;45.772;4.804;2023-08-31T04:05:33;4.40;;;1.70;;
74320;SDS011;62738;45.772;4.804;2023-08-31T04:08:02;3.42;;;1.80;;
74320;SDS011;62738;45.772;4.804;2023-08-31T04:10:30;4.35;;;1.92;;
74320;SDS011;62738;45.772;4.804;2023-08-31T04:12:58;3.05;;;1.65;;
74320;SDS011;62738;45.772;4.804;2023-08-31T04:15:25;3.25;;;1.52;;
74320;SDS011;62738;45.772;4.804;2023-08-31T04:17:52;4.13;;;1.90;;
74320;SDS011;62738;45.772;4.804;2023-08-31T04:20:18;4.07;;;1.92;;
74320;SDS011;62738;45.772;4.804;2023-08-31T04:22:45;4.80;;;1.77;;
74320;SDS011;62738;45.772;4.804;2023-08-31T04:25:12;3.63;;;1.70;;
74320;SDS011;62738;45.772;4.804;2023-08-31T04:27:39;3.47;;;1.70;;
74320;SDS011;62738;45.772;4.804;2023-08-31T04:30:06;3.88;;;1.90;;
74320;SDS011;62738;45.772;4.804;2023-08-31T04:32:34;2.65;;;1.60;;
74320;SDS011;62738;45.772;4.804;2023-08-31T04:35:05;4.43;;;1.70;;
74320;SDS011;62738;45.772;4.804;2023-08-31T04:37:32;3.03;;;1.73;;
74320;SDS011;62738;45.772;4.804;2023-08-31T04:39:59;3.40;;;1.70;;
74320;SDS011;62738;45.772;4.804;2023-08-31T04:42:26;5.60;;;2.15;;
74320;SDS011;62738;45.772;4.804;2023-08-31T04:44:53;4.35;;;2.03;;
74320;SDS011;62738;45.772;4.804;2023-08-31T04:47:19;3.95;;;1.77;;
74320;SDS011;62738;45.772;4.804;2023-08-31T04:49:46;3.30;;;1.88;;
74320;SDS011;62738;45.772;4.804;2023-08-31T04:52:13;4.93;;;1.67;;
74320;SDS011;62738;45.772;4.804;2023-08-31T04:54:40;2.72;;;1.80;;
74320;SDS011;62738;45.772;4.804;2023-08-31T04:57:15;3.42;;;1.98;;
74320;SDS011;62738;45.772;4.804;2023-08-31T04:59:42;3.00;;;1.67;;
74320;SDS011;62738;45.772;4.804;2023-08-31T05:02:08;4.05;;;1.88;;
74320;SDS011;62738;45.772;4.804;2023-08-31T05:04:35;5.47;;;2.17;;
74320;SDS011;62738;45.772;4.804;2023-08-31T05:07:01;4.75;;;1.90;;
74320;SDS011;62738;45.772;4.804;2023-08-31T05:09:29;4.57;;;1.83;;
74320;SDS011;62738;45.772;4.804;2023-08-31T05:12:01;5.50;;;2.08;;
74320;SDS011;62738;45.772;4.804;2023-08-31T05:14:32;4.03;;;1.92;;
74320;SDS011;62738;45.772;4.804;2023-08-31T05:16:59;4.57;;;2.10;;
74320;SDS011;62738;45.772;4.804;2023-08-31T05:19:25;3.95;;;1.90;;
74320;SDS011;62738;45.772;4.804;2023-08-31T05:21:53;4.40;;;1.67;;
74320;SDS011;62738;45.772;4.804;2023-08-31T05:24:20;4.68;;;1.80;;
74320;SDS011;62738;45.772;4.804;2023-08-31T05:26:46;3.15;;;1.60;;
74320;SDS011;62738;45.772;4.804;2023-08-31T05:29:13;3.15;;;1.60;;
74320;SDS011;62738;45.772;4.804;2023-08-31T05:31:39;3.50;;;1.75;;
74320;SDS011;62738;45.772;4.804;2023-08-31T05:34:06;4.40;;;1.70;;
74320;SDS011;62738;45.772;4.804;2023-08-31T05:36:33;4.50;;;1.80;;
74320;SDS011;62738;45.772;4.804;2023-08-31T05:38:59;6.75;;;2.05;;
74320;SDS011;62738;45.772;4.804;2023-08-31T05:41:26;4.75;;;2.05;;
74320;SDS011;62738;45.772;4.804;2023-08-31T05:43:53;4.82;;;2.17;;
74320;SDS011;62738;45.772;4.804;2023-08-31T05:46:19;4.88;;;1.75;;
74320;SDS011;62738;45.772;4.804;2023-08-31T05:48:46;6.00;;;2.28;;
74320;SDS011;62738;45.772;4.804;2023-08-31T05:51:13;3.83;;;1.98;;
74320;SDS011;62738;45.772;4.804;2023-08-31T05:53:40;4.07;;;1.95;;
74320;SDS011;62738;45.772;4.804;2023-08-31T05:56:06;7.13;;;2.03;;
74320;SDS011;62738;45.772;4.804;2023-08-31T05:58:34;5.65;;;1.95;;
74320;SDS011;62738;45.772;4.804;2023-08-31T06:01:02;6.88;;;2.20;;
74320;SDS011;62738;45.772;4.804;2023-08-31T06:03:29;5.72;;;2.20;;
74320;SDS011;62738;45.772;4.804;2023-08-31T06:05:56;5.85;;;2.03;;
74320;SDS011;62738;45.772;4.804;2023-08-31T06:08:25;4.22;;;1.73;;
74320;SDS011;62738;45.772;4.804;2023-08-31T06:10:52;6.57;;;1.85;;
74320;SDS011;62738;45.772;4.804;2023-08-31T06:13:18;7.13;;;1.90;;
74320;SDS011;62738;45.772;4.804;2023-08-31T06:15:45;3.80;;;1.92;;
74320;SDS011;62738;45.772;4.804;2023-08-31T06:18:11;5.65;;;2.15;;
74320;SDS011;62738;45.772;4.804;2023-08-31T06:20:38;3.85;;;2.25;;
74320;SDS011;62738;45.772;4.804;2023-08-31T06:23:05;5.75;;;2.28;;
74320;SDS011;62738;45.772;4.804;2023-08-31T06:25:32;6.07;;;2.20;;
74320;SDS011;62738;45.772;4.804;2023-08-31T06:27:59;4.32;;;2.05;;
74320;SDS011;62738;45.772;4.804;2023-08-31T06:30:25;4.55;;;1.60;;
74320;SDS011;62738;45.772;4.804;2023-08-31T06:32:52;4.95;;;1.70;;
74320;SDS011;62738;45.772;4.804;2023-08-31T06:35:19;5.07;;;2.05;;
74320;SDS011;62738;45.772;4.804;2023-08-31T06:37:47;5.22;;;1.50;;
74320;SDS011;62738;45.772;4.804;2023-08-31T06:40:13;5.93;;;1.90;;
74320;SDS011;62738;45.772;4.804;2023-08-31T06:42:40;5.72;;;1.85;;
74320;SDS011;62738;45.772;4.804;2023-08-31T06:45:07;6.05;;;1.40;;
74320;SDS011;62738;45.772;4.804;2023-08-31T06:47:34;4.88;;;1.60;;
74320;SDS011;62738;45.772;4.804;2023-08-31T06:50:01;4.43;;;1.50;;
74320;SDS011;62738;45.772;4.804;2023-08-31T06:52:30;5.35;;;1.48;;
74320;SDS011;62738;45.772;4.804;2023-08-31T06:54:58;3.85;;;1.30;;
74320;SDS011;62738;45.772;4.804;2023-08-31T06:57:25;5.95;;;1.48;;
74320;SDS011;62738;45.772;4.804;2023-08-31T06:59:53;4.82;;;1.20;;
74320;SDS011;62738;45.772;4.804;2023-08-31T07:02:20;3.22;;;1.20;;
74320;SDS011;62738;45.772;4.804;2023-08-31T07:04:48;5.50;;;1.20;;
74320;SDS011;62738;45.772;4.804;2023-08-31T07:07:16;5.10;;;1.40;;
74320;SDS011;62738;45.772;4.804;2023-08-31T07:09:43;3.58;;;1.20;;
74320;SDS011;62738;45.772;4.804;2023-08-31T07:12:10;5.30;;;1.30;;
74320;SDS011;62738;45.772;4.804;2023-08-31T07:14:37;4.55;;;1.55;;
74320;SDS011;62738;45.772;4.804;2023-08-31T07:17:04;3.15;;;1.20;;
74320;SDS011;62738;45.772;4.804;2023-08-31T07:19:31;3.88;;;1.10;;
74320;SDS011;62738;45.772;4.804;2023-08-31T07:21:57;4.70;;;1.38;;
74320;SDS011;62738;45.772;4.804;2023-08-31T07:24:25;3.60;;;1.30;;
74320;SDS011;62738;45.772;4.804;2023-08-31T07:26:52;3.08;;;1.20;;
74320;SDS011;62738;45.772;4.804;2023-08-31T07:29:19;3.22;;;1.23;;
74320;SDS011;62738;45.772;4.804;2023-08-31T07:31:45;5.57;;;1.60;;
74320;SDS011;62738;45.772;4.804;2023-08-31T07:34:12;3.33;;;1.30;;
74320;SDS011;62738;45.772;4.804;2023-08-31T07:36:39;1.88;;;0.95;;
74320;SDS011;62738;45.772;4.804;2023-08-31T07:39:06;10.40;;;1.60;;
74320;SDS011;62738;45.772;4.804;2023-08-31T07:41:33;3.20;;;1.52;;
74320;SDS011;62738;45.772;4.804;2023-08-31T07:44:00;4.78;;;1.33;;
74320;SDS011;62738;45.772;4.804;2023-08-31T07:46:30;5.13;;;1.30;;
74320;SDS011;62738;45.772;4.804;2023-08-31T07:48:57;2.67;;;1.02;;
74320;SDS011;62738;45.772;4.804;2023-08-31T07:51:24;3.60;;;1.00;;
74320;SDS011;62738;45.772;4.804;2023-08-31T07:53:52;3.58;;;1.23;;
74320;SDS011;62738;45.772;4.804;2023-08-31T07:56:19;3.38;;;1.23;;
74320;SDS011;62738;45.772;4.804;2023-08-31T07:58:45;2.45;;;1.30;;
74320;SDS011;62738;45.772;4.804;2023-08-31T08:01:12;4.75;;;1.30;;
74320;SDS011;62738;45.772;4.804;2023-08-31T08:03:39;4.50;;;1.40;;
74320;SDS011;62738;45.772;4.804;2023-08-31T08:06:06;5.32;;;1.42;;
74320;SDS011;62738;45.772;4.804;2023-08-31T08:08:32;8.13;;;1.70;;
74320;SDS011;62738;45.772;4.804;2023-08-31T08:10:59;3.67;;;1.10;;
74320;SDS011;62738;45.772;4.804;2023-08-31T08:13:26;3.47;;;1.10;;
74320;SDS011;62738;45.772;4.804;2023-08-31T08:15:52;4.13;;;1.25;;
74320;SDS011;62738;45.772;4.804;2023-08-31T08:18:19;3.85;;;1.33;;
74320;SDS011;62738;45.772;4.804;2023-08-31T08:20:52;4.35;;;1.40;;
74320;SDS011;62738;45.772;4.804;2023-08-31T08:23:19;3.03;;;1.20;;
74320;SDS011;62738;45.772;4.804;2023-08-31T08:25:48;6.63;;;1.48;;
74320;SDS011;62738;45.772;4.804;2023-08-31T08:28:15;6.00;;;1.25;;
74320;SDS011;62738;45.772;4.804;2023-08-31T08:30:41;7.80;;;1.10;;
74320;SDS011;62738;45.772;4.804;2023-08-31T08:33:08;6.95;;;1.30;;
74320;SDS011;62738;45.772;4.804;2023-08-31T08:35:37;5.22;;;1.67;;
74320;SDS011;62738;45.772;4.804;2023-08-31T08:38:04;9.05;;;2.00;;
74320;SDS011;62738;45.772;4.804;2023-08-31T08:40:31;3.58;;;1.20;;
74320;SDS011;62738;45.772;4.804;2023-08-31T08:42:59;4.10;;;1.45;;
74320;SDS011;62738;45.772;4.804;2023-08-31T08:45:30;6.32;;;1.52;;
74320;SDS011;62738;45.772;4.804;2023-08-31T08:48:06;5.32;;;1.15;;
74320;SDS011;62738;45.772;4.804;2023-08-31T08:50:34;4.22;;;1.08;;
74320;SDS011;62738;45.772;4.804;2023-08-31T08:53:02;4.07;;;1.23;;
74320;SDS011;62738;45.772;4.804;2023-08-31T08:55:29;7.32;;;1.40;;
74320;SDS011;62738;45.772;4.804;2023-08-31T08:57:57;3.92;;;1.13;;
74320;SDS011;62738;45.772;4.804;2023-08-31T09:00:30;2.78;;;1.20;;
74320;SDS011;62738;45.772;4.804;2023-08-31T09:02:57;4.47;;;1.50;;
74320;SDS011;62738;45.772;4.804;2023-08-31T09:05:25;3.38;;;1.17;;
74320;SDS011;62738;45.772;4.804;2023-08-31T09:10:45;5.85;;;1.50;;
74320;SDS011;62738;45.772;4.804;2023-08-31T09:13:12;4.63;;;1.30;;
74320;SDS011;62738;45.772;4.804;2023-08-31T09:15:43;5.47;;;1.33;;
74320;SDS011;62738;45.772;4.804;2023-08-31T09:18:24;5.15;;;1.30;;
74320;SDS011;62738;45.772;4.804;2023-08-31T09:20:59;3.22;;;1.20;;
74320;SDS011;62738;45.772;4.804;2023-08-31T09:23:27;5.68;;;1.33;;
74320;SDS011;62738;45.772;4.804;2023-08-31T09:25:54;4.72;;;1.42;;
74320;SDS011;62738;45.772;4.804;2023-08-31T09:28:23;5.55;;;1.20;;
74320;SDS011;62738;45.772;4.804;2023-08-31T09:31:04;3.47;;;1.00;;
74320;SDS011;62738;45.772;4.804;2023-08-31T09:33:33;4.32;;;1.40;;
74320;SDS011;62738;45.772;4.804;2023-08-31T09:36:01;4.32;;;1.30;;
74320;SDS011;62738;45.772;4.804;2023-08-31T09:38:30;2.65;;;1.13;;
74320;SDS011;62738;45.772;4.804;2023-08-31T09:41:04;3.67;;;1.23;;
74320;SDS011;62738;45.772;4.804;2023-08-31T09:43:32;2.47;;;1.10;;
74320;SDS011;62738;45.772;4.804;2023-08-31T09:45:59;3.08;;;1.35;;
74320;SDS011;62738;45.772;4.804;2023-08-31T09:48:26;6.30;;;1.40;;
74320;SDS011;62738;45.772;4.804;2023-08-31T09:50:53;3.08;;;1.20;;
74320;SDS011;62738;45.772;4.804;2023-08-31T09:53:21;5.55;;;1.15;;
74320;SDS011;62738;45.772;4.804;2023-08-31T09:55:51;3.47;;;1.40;;
74320;SDS011;62738;45.772;4.804;2023-08-31T09:58:19;3.60;;;1.15;;
74320;SDS011;62738;45.772;4.804;2023-08-31T10:00:48;3.67;;;1.05;;
74320;SDS011;62738;45.772;4.804;2023-08-31T10:03:16;2.85;;;0.98;;
74320;SDS011;62738;45.772;4.804;2023-08-31T10:05:45;3.55;;;1.40;;
74320;SDS011;62738;45.772;4.804;2023-08-31T10:08:13;2.85;;;1.10;;
74320;SDS011;62738;45.772;4.804;2023-08-31T10:10:42;3.13;;;1.10;;
74320;SDS011;62738;45.772;4.804;2023-08-31T10:13:09;4.03;;;1.20;;
74320;SDS011;62738;45.772;4.804;2023-08-31T10:15:37;4.50;;;1.10;;
74320;SDS011;62738;45.772;4.804;2023-08-31T10:18:04;4.20;;;1.27;;
74320;SDS011;62738;45.772;4.804;2023-08-31T10:20:32;3.67;;;1.25;;
74320;SDS011;62738;45.772;4.804;2023-08-31T10:23:04;3.45;;;1.17;;
74320;SDS011;62738;45.772;4.804;2023-08-31T10:28:17;6.10;;;1.55;;
74320;SDS011;62738;45.772;4.804;2023-08-31T10:31:01;4.88;;;1.50;;
74320;SDS011;62738;45.772;4.804;2023-08-31T10:33:34;3.28;;;1.35;;
74320;SDS011;62738;45.772;4.804;2023-08-31T10:36:09;3.17;;;1.30;;
74320;SDS011;62738;45.772;4.804;2023-08-31T10:38:38;6.07;;;1.48;;
74320;SDS011;62738;45.772;4.804;2023-08-31T10:43:44;4.63;;;1.80;;
74320;SDS011;62738;45.772;4.804;2023-08-31T10:51:25;6.40;;;1.75;;
74320;SDS011;62738;45.772;4.804;2023-08-31T11:05:06;6.97;;;1.70;;
74320;SDS011;62738;45.772;4.804;2023-08-31T11:07:33;6.65;;;1.50;;
74320;SDS011;62738;45.772;4.804;2023-08-31T11:10:10;4.32;;;1.20;;
74320;SDS011;62738;45.772;4.804;2023-08-31T11:12:38;4.18;;;1.50;;
74320;SDS011;62738;45.772;4.804;2023-08-31T11:15:06;4.93;;;1.50;;
74320;SDS011;62738;45.772;4.804;2023-08-31T11:17:33;4.55;;;1.60;;
74320;SDS011;62738;45.772;4.804;2023-08-31T11:20:01;9.77;;;1.52;;
74320;SDS011;62738;45.772;4.804;2023-08-31T11:22:31;3.92;;;1.58;;
74320;SDS011;62738;45.772;4.804;2023-08-31T11:24:59;3.80;;;1.42;;
74320;SDS011;62738;45.772;4.804;2023-08-31T11:27:26;5.20;;;2.05;;
74320;SDS011;62738;45.772;4.804;2023-08-31T11:29:53;3.92;;;1.50;;
74320;SDS011;62738;45.772;4.804;2023-08-31T11:32:22;4.40;;;1.63;;
74320;SDS011;62738;45.772;4.804;2023-08-31T11:34:51;5.20;;;1.55;;
74320;SDS011;62738;45.772;4.804;2023-08-31T11:37:17;3.75;;;1.38;;
74320;SDS011;62738;45.772;4.804;2023-08-31T11:39:50;4.75;;;1.52;;
74320;SDS011;62738;45.772;4.804;2023-08-31T11:42:18;5.13;;;1.42;;
74320;SDS011;62738;45.772;4.804;2023-08-31T11:44:47;5.47;;;1.40;;
74320;SDS011;62738;45.772;4.804;2023-08-31T11:47:15;3.08;;;1.30;;
74320;SDS011;62738;45.772;4.804;2023-08-31T11:49:42;2.50;;;1.00;;
74320;SDS011;62738;45.772;4.804;2023-08-31T11:52:10;4.70;;;1.70;;
74320;SDS011;62738;45.772;4.804;2023-08-31T11:54:38;5.25;;;1.40;;
74320;SDS011;62738;45.772;4.804;2023-08-31T11:57:06;6.07;;;1.20;;
74320;SDS011;62738;45.772;4.804;2023-08-31T11:59:35;6.00;;;1.83;;
74320;SDS011;62738;45.772;4.804;2023-08-31T12:02:06;2.95;;;1.23;;
74320;SDS011;62738;45.772;4.804;2023-08-31T12:04:43;5.13;;;1.40;;
74320;SDS011;62738;45.772;4.804;2023-08-31T12:09:38;3.17;;;1.25;;
74320;SDS011;62738;45.772;4.804;2023-08-31T12:12:04;4.38;;;1.48;;
74320;SDS011;62738;45.772;4.804;2023-08-31T12:14:36;4.10;;;1.30;;
74320;SDS011;62738;45.772;4.804;2023-08-31T12:17:06;3.55;;;1.33;;
74320;SDS011;62738;45.772;4.804;2023-08-31T12:19:35;3.47;;;1.30;;
74320;SDS011;62738;45.772;4.804;2023-08-31T12:22:03;7.05;;;1.70;;
74320;SDS011;62738;45.772;4.804;2023-08-31T12:24:36;3.78;;;1.20;;
74320;SDS011;62738;45.772;4.804;2023-08-31T12:27:05;2.85;;;1.20;;
74320;SDS011;62738;45.772;4.804;2023-08-31T12:29:32;3.70;;;1.60;;
74320;SDS011;62738;45.772;4.804;2023-08-31T12:32:00;4.75;;;1.60;;
74320;SDS011;62738;45.772;4.804;2023-08-31T12:34:26;7.03;;;1.60;;
74320;SDS011;62738;45.772;4.804;2023-08-31T12:36:53;5.50;;;1.33;;
74320;SDS011;62738;45.772;4.804;2023-08-31T12:39:20;3.47;;;1.30;;
74320;SDS011;62738;45.772;4.804;2023-08-31T12:41:46;3.40;;;1.50;;
74320;SDS011;62738;45.772;4.804;2023-08-31T12:44:13;2.95;;;1.00;;
74320;SDS011;62738;45.772;4.804;2023-08-31T12:46:40;3.60;;;1.40;;
74320;SDS011;62738;45.772;4.804;2023-08-31T12:49:06;2.80;;;1.20;;
74320;SDS011;62738;45.772;4.804;2023-08-31T12:51:33;4.70;;;1.77;;
74320;SDS011;62738;45.772;4.804;2023-08-31T12:54:00;6.25;;;1.92;;
74320;SDS011;62738;45.772;4.804;2023-08-31T12:56:26;4.50;;;1.25;;
74320;SDS011;62738;45.772;4.804;2023-08-31T12:58:53;10.10;;;1.58;;
74320;SDS011;62738;45.772;4.804;2023-08-31T13:01:20;6.82;;;1.50;;
74320;SDS011;62738;45.772;4.804;2023-08-31T13:03:50;5.00;;;1.45;;
74320;SDS011;62738;45.772;4.804;2023-08-31T13:06:16;5.45;;;1.33;;
74320;SDS011;62738;45.772;4.804;2023-08-31T13:08:44;4.53;;;1.45;;
74320;SDS011;62738;45.772;4.804;2023-08-31T13:11:11;4.10;;;1.42;;
74320;SDS011;62738;45.772;4.804;2023-08-31T13:13:39;5.40;;;1.60;;
74320;SDS011;62738;45.772;4.804;2023-08-31T13:16:07;4.60;;;1.50;;
74320;SDS011;62738;45.772;4.804;2023-08-31T13:18:34;3.58;;;1.30;;
74320;SDS011;62738;45.772;4.804;2023-08-31T13:21:01;4.35;;;1.25;;
74320;SDS011;62738;45.772;4.804;2023-08-31T13:23:28;4.18;;;1.50;;
74320;SDS011;62738;45.772;4.804;2023-08-31T13:25:55;4.32;;;1.20;;
74320;SDS011;62738;45.772;4.804;2023-08-31T13:28:22;2.88;;;1.20;;
74320;SDS011;62738;45.772;4.804;2023-08-31T13:30:49;3.70;;;1.38;;
74320;SDS011;62738;45.772;4.804;2023-08-31T13:33:16;4.43;;;1.40;;
74320;SDS011;62738;45.772;4.804;2023-08-31T13:35:45;4.03;;;1.42;;
74320;SDS011;62738;45.772;4.804;2023-08-31T13:38:12;3.72;;;1.40;;
74320;SDS011;62738;45.772;4.804;2023-08-31T13:40:40;7.05;;;1.60;;
74320;SDS011;62738;45.772;4.804;2023-08-31T13:43:07;3.30;;;1.33;;
74320;SDS011;62738;45.772;4.804;2023-08-31T13:45:33;5.03;;;1.30;;
74320;SDS011;62738;45.772;4.804;2023-08-31T13:48:00;3.20;;;1.30;;
74320;SDS011;62738;45.772;4.804;2023-08-31T13:50:27;4.22;;;1.50;;
74320;SDS011;62738;45.772;4.804;2023-08-31T13:52:54;5.15;;;1.20;;
74320;SDS011;62738;45.772;4.804;2023-08-31T13:55:21;5.30;;;1.38;;
74320;SDS011;62738;45.772;4.804;2023-08-31T13:57:49;3.85;;;1.35;;
74320;SDS011;62738;45.772;4.804;2023-08-31T14:00:16;6.07;;;1.38;;
74320;SDS011;62738;45.772;4.804;2023-08-31T14:02:43;4.35;;;1.30;;
74320;SDS011;62738;45.772;4.804;2023-08-31T14:05:11;5.20;;;1.45;;
74320;SDS011;62738;45.772;4.804;2023-08-31T14:07:38;3.63;;;1.15;;
74320;SDS011;62738;45.772;4.804;2023-08-31T14:10:05;5.47;;;1.33;;
74320;SDS011;62738;45.772;4.804;2023-08-31T14:12:33;3.75;;;1.30;;
74320;SDS011;62738;45.772;4.804;2023-08-31T14:15:00;3.10;;;1.15;;
74320;SDS011;62738;45.772;4.804;2023-08-31T14:17:30;4.60;;;1.48;;
74320;SDS011;62738;45.772;4.804;2023-08-31T14:20:00;4.55;;;1.40;;
74320;SDS011;62738;45.772;4.804;2023-08-31T14:22:30;3.30;;;1.17;;
74320;SDS011;62738;45.772;4.804;2023-08-31T14:24:56;4.05;;;1.05;;
74320;SDS011;62738;45.772;4.804;2023-08-31T14:29:54;4.53;;;1.35;;
74320;SDS011;62738;45.772;4.804;2023-08-31T14:32:20;3.28;;;1.23;;
74320;SDS011;62738;45.772;4.804;2023-08-31T14:34:48;3.88;;;1.17;;
74320;SDS011;62738;45.772;4.804;2023-08-31T14:37:15;3.53;;;1.23;;
74320;SDS011;62738;45.772;4.804;2023-08-31T14:39:41;4.70;;;1.10;;
74320;SDS011;62738;45.772;4.804;2023-08-31T14:42:08;3.63;;;1.23;;
74320;SDS011;62738;45.772;4.804;2023-08-31T14:44:35;4.82;;;1.10;;
74320;SDS011;62738;45.772;4.804;2023-08-31T14:47:01;2.67;;;1.15;;
74320;SDS011;62738;45.772;4.804;2023-08-31T14:49:29;3.95;;;1.27;;
74320;SDS011;62738;45.772;4.804;2023-08-31T14:51:56;4.43;;;1.15;;
74320;SDS011;62738;45.772;4.804;2023-08-31T14:54:23;5.03;;;1.30;;
74320;SDS011;62738;45.772;4.804;2023-08-31T14:56:50;4.05;;;1.17;;
74320;SDS011;62738;45.772;4.804;2023-08-31T14:59:17;1.98;;;1.08;;
74320;SDS011;62738;45.772;4.804;2023-08-31T15:01:44;2.20;;;1.10;;
74320;SDS011;62738;45.772;4.804;2023-08-31T15:04:12;5.35;;;1.08;;
74320;SDS011;62738;45.772;4.804;2023-08-31T15:06:38;2.95;;;1.00;;
74320;SDS011;62738;45.772;4.804;2023-08-31T15:09:05;3.67;;;1.10;;
74320;SDS011;62738;45.772;4.804;2023-08-31T15:11:32;3.55;;;1.10;;
74320;SDS011;62738;45.772;4.804;2023-08-31T15:13:59;5.90;;;1.30;;
74320;SDS011;62738;45.772;4.804;2023-08-31T15:16:26;4.20;;;1.33;;
74320;SDS011;62738;45.772;4.804;2023-08-31T15:18:52;2.25;;;1.13;;
74320;SDS011;62738;45.772;4.804;2023-08-31T15:21:19;1.95;;;1.13;;
74320;SDS011;62738;45.772;4.804;2023-08-31T15:23:46;3.40;;;1.35;;
74320;SDS011;62738;45.772;4.804;2023-08-31T15:26:13;4.03;;;1.30;;